createdAt,value
2018-09-02T00:00:03.986Z,5.17
2018-09-02T00:01:08.104Z,5.40
2018-09-02T00:02:12.251Z,5.37
2018-09-02T00:03:16.359Z,5.72
2018-09-02T00:04:20.522Z,5.47
2018-09-02T00:05:24.640Z,5.45
2018-09-02T00:06:28.727Z,5.35
2018-09-02T00:07:32.840Z,5.87
2018-09-02T00:08:36.913Z,5.10
2018-09-02T00:09:41.123Z,5.40
2018-09-02T00:10:45.235Z,5.67
2018-09-02T00:11:49.344Z,5.90
2018-09-02T00:12:53.414Z,5.45
2018-09-02T00:13:57.807Z,5.40
2018-09-02T00:15:01.899Z,5.20
2018-09-02T00:16:06.088Z,4.75
2018-09-02T00:17:10.192Z,5.30
2018-09-02T00:18:14.244Z,5.30
2018-09-02T00:19:18.368Z,5.17
2018-09-02T00:20:22.594Z,5.50
2018-09-02T00:21:26.702Z,5.42
2018-09-02T00:22:30.852Z,5.35
2018-09-02T00:23:34.911Z,5.58
2018-09-02T00:24:39.482Z,6.00
2018-09-02T00:25:43.606Z,5.85
2018-09-02T00:26:47.663Z,5.35
2018-09-02T00:27:51.843Z,5.42
2018-09-02T00:28:55.904Z,5.78
2018-09-02T00:30:00.070Z,6.50
2018-09-02T00:31:04.317Z,6.15
2018-09-02T00:32:08.725Z,6.67
2018-09-02T00:33:12.801Z,6.35
2018-09-02T00:34:16.860Z,6.05
2018-09-02T00:35:21.208Z,6.30
2018-09-02T00:36:25.409Z,6.45
2018-09-02T00:37:29.625Z,6.72
2018-09-02T00:38:33.843Z,6.70
2018-09-02T00:39:38.163Z,6.50
2018-09-02T00:40:42.210Z,6.30
2018-09-02T00:41:46.300Z,6.03
2018-09-02T00:42:50.620Z,5.80
2018-09-02T00:43:54.700Z,6.03
2018-09-02T00:44:58.803Z,6.05
2018-09-02T00:46:03.197Z,6.12
2018-09-02T00:47:07.463Z,5.65
2018-09-02T00:48:11.508Z,6.65
2018-09-02T00:49:15.881Z,6.37
2018-09-02T00:50:19.932Z,6.47
2018-09-02T00:51:24.015Z,6.35
2018-09-02T00:52:28.288Z,5.95
2018-09-02T00:53:32.509Z,5.87
2018-09-02T00:54:36.664Z,5.75
2018-09-02T00:55:41.201Z,5.95
2018-09-02T00:56:45.548Z,6.05
2018-09-02T00:57:49.706Z,6.53
2018-09-02T00:58:53.822Z,6.15
2018-09-02T00:59:57.970Z,5.83
2018-09-02T01:01:02.091Z,6.25
2018-09-02T01:02:06.483Z,6.50
2018-09-02T01:03:10.614Z,6.17
2018-09-02T01:04:14.691Z,6.00
2018-09-02T01:05:18.801Z,5.95
2018-09-02T01:06:23.025Z,5.60
2018-09-02T01:07:27.170Z,6.45
2018-09-02T01:08:31.226Z,6.78
2018-09-02T01:09:35.391Z,6.42
2018-09-02T01:10:39.673Z,6.00
2018-09-02T01:11:43.730Z,6.53
2018-09-02T01:12:48.151Z,6.58
2018-09-02T01:13:52.225Z,6.35
2018-09-02T01:14:56.504Z,6.17
2018-09-02T01:16:00.589Z,5.97
2018-09-02T01:17:04.919Z,6.45
2018-09-02T01:18:09.105Z,6.45
2018-09-02T01:19:13.340Z,5.90
2018-09-02T01:20:17.474Z,5.87
2018-09-02T01:21:21.556Z,5.95
2018-09-02T01:22:25.656Z,7.03
2018-09-02T01:23:29.734Z,6.30
2018-09-02T01:24:33.799Z,6.62
2018-09-02T01:25:38.557Z,6.85
2018-09-02T01:26:43.100Z,6.22
2018-09-02T01:27:47.202Z,6.00
2018-09-02T01:29:02.505Z,5.95
2018-09-02T01:30:12.616Z,5.60
2018-09-02T01:31:22.693Z,5.95
2018-09-02T01:32:26.811Z,5.42
2018-09-02T01:33:30.906Z,5.90
2018-09-02T01:34:35.121Z,5.75
2018-09-02T01:35:39.166Z,5.53
2018-09-02T01:36:43.286Z,5.20
2018-09-02T01:37:47.705Z,5.25
2018-09-02T01:38:51.856Z,5.62
2018-09-02T01:39:55.910Z,6.03
2018-09-02T01:41:00.308Z,5.97
2018-09-02T01:42:04.381Z,5.92
2018-09-02T01:43:08.424Z,5.67
2018-09-02T01:44:12.911Z,5.75
2018-09-02T01:45:17.012Z,6.08
2018-09-02T01:46:21.096Z,5.67
2018-09-02T01:47:25.547Z,5.45
2018-09-02T01:48:29.617Z,5.37
2018-09-02T01:49:33.858Z,5.55
2018-09-02T01:50:38.353Z,5.60
2018-09-02T01:51:42.473Z,6.37
2018-09-02T01:52:46.640Z,6.10
2018-09-02T01:53:50.764Z,6.08
2018-09-02T01:54:55.098Z,5.65
2018-09-02T01:55:59.177Z,5.90
2018-09-02T01:57:03.252Z,5.45
2018-09-02T01:58:07.714Z,5.08
2018-09-02T01:59:11.830Z,5.90
2018-09-02T02:00:17.197Z,5.42
2018-09-02T02:01:21.677Z,5.97
2018-09-02T02:02:25.759Z,5.65
2018-09-02T02:03:30.096Z,6.12
2018-09-02T02:04:39.753Z,5.65
2018-09-02T02:05:44.278Z,5.83
2018-09-02T02:06:48.475Z,5.80
2018-09-02T02:07:52.568Z,5.50
2018-09-02T02:08:57.110Z,5.90
2018-09-02T02:10:01.221Z,5.53
2018-09-02T02:11:05.342Z,5.70
2018-09-02T02:12:09.588Z,5.83
2018-09-02T02:13:13.658Z,6.20
2018-09-02T02:14:17.766Z,5.85
2018-09-02T02:15:21.889Z,6.35
2018-09-02T02:16:26.275Z,6.03
2018-09-02T02:17:30.398Z,5.83
2018-09-02T02:18:34.550Z,5.78
2018-09-02T02:19:39.014Z,6.17
2018-09-02T02:20:43.089Z,6.00
2018-09-02T02:21:47.192Z,5.55
2018-09-02T02:22:51.262Z,6.15
2018-09-02T02:23:55.336Z,5.95
2018-09-02T02:24:59.496Z,6.12
2018-09-02T02:26:03.644Z,5.95
2018-09-02T02:27:07.799Z,7.05
2018-09-02T02:28:11.908Z,6.70
2018-09-02T02:29:16.072Z,6.72
2018-09-02T02:30:20.281Z,6.42
2018-09-02T02:31:24.472Z,6.83
2018-09-02T02:32:28.815Z,5.95
2018-09-02T02:33:33.407Z,6.35
2018-09-02T02:34:37.854Z,6.28
2018-09-02T02:35:41.990Z,7.70
2018-09-02T02:36:46.181Z,6.97
2018-09-02T02:37:50.468Z,7.08
2018-09-02T02:38:54.583Z,6.53
2018-09-02T02:39:58.696Z,6.72
2018-09-02T02:41:03.147Z,6.90
2018-09-02T02:42:07.267Z,6.72
2018-09-02T02:43:11.410Z,7.17
2018-09-02T02:44:15.936Z,6.55
2018-09-02T02:45:20.326Z,7.05
2018-09-02T02:46:24.372Z,6.70
2018-09-02T02:47:28.680Z,7.20
2018-09-02T02:48:32.821Z,7.30
2018-09-02T02:49:36.901Z,6.55
2018-09-02T02:50:41.265Z,6.47
2018-09-02T02:51:45.339Z,6.80
2018-09-02T02:52:54.873Z,6.08
2018-09-02T02:53:59.012Z,5.90
2018-09-02T02:55:03.363Z,6.47
2018-09-02T02:56:07.966Z,6.28
2018-09-02T02:57:12.130Z,6.15
2018-09-02T02:58:16.389Z,5.97
2018-09-02T02:59:20.871Z,5.90
2018-09-02T03:00:25.058Z,6.67
2018-09-02T03:01:29.071Z,6.22
2018-09-02T03:02:33.455Z,6.60
2018-09-02T03:03:37.613Z,6.42
2018-09-02T03:04:42.124Z,6.35
2018-09-02T03:05:46.286Z,5.97
2018-09-02T03:06:50.555Z,6.45
2018-09-02T03:07:54.778Z,6.30
2018-09-02T03:08:58.806Z,6.25
2018-09-02T03:10:02.954Z,6.30
2018-09-02T03:11:07.264Z,5.85
2018-09-02T03:12:11.484Z,6.12
2018-09-02T03:13:15.578Z,6.08
2018-09-02T03:14:19.681Z,6.15
2018-09-02T03:15:23.966Z,5.97
2018-09-02T03:16:28.040Z,5.87
2018-09-02T03:17:32.374Z,6.33
2018-09-02T03:18:37.023Z,6.58
2018-09-02T03:19:41.207Z,6.03
2018-09-02T03:20:45.276Z,6.37
2018-09-02T03:21:49.415Z,5.90
2018-09-02T03:22:53.561Z,6.35
2018-09-02T03:23:58.098Z,6.08
2018-09-02T03:25:02.345Z,5.92
2018-09-02T03:26:06.413Z,5.92
2018-09-02T03:27:10.609Z,6.30
2018-09-02T03:28:14.767Z,5.62
2018-09-02T03:29:18.874Z,5.72
2018-09-02T03:30:23.276Z,6.10
2018-09-02T03:31:27.446Z,6.12
2018-09-02T03:32:31.550Z,6.10
2018-09-02T03:33:35.997Z,5.60
2018-09-02T03:34:40.054Z,5.83
2018-09-02T03:35:44.245Z,5.85
2018-09-02T03:36:48.352Z,5.95
2018-09-02T03:37:52.602Z,5.80
2018-09-02T03:38:56.707Z,5.70
2018-09-02T03:40:00.815Z,5.30
2018-09-02T03:41:05.532Z,5.40
2018-09-02T03:42:09.649Z,5.67
2018-09-02T03:43:13.724Z,6.08
2018-09-02T03:44:17.922Z,6.00
2018-09-02T03:45:22.202Z,5.67
2018-09-02T03:46:26.348Z,5.47
2018-09-02T03:47:30.467Z,5.42
2018-09-02T03:48:34.783Z,5.58
2018-09-02T03:49:39.265Z,5.60
2018-09-02T03:50:50.228Z,6.10
2018-09-02T03:51:54.456Z,5.53
2018-09-02T03:52:58.977Z,5.20
2018-09-02T03:54:03.263Z,5.60
2018-09-02T03:55:07.481Z,5.53
2018-09-02T03:56:11.580Z,5.12
2018-09-02T03:57:15.933Z,5.72
2018-09-02T03:58:19.944Z,5.55
2018-09-02T03:59:24.279Z,6.20
2018-09-02T04:00:28.442Z,5.65
2018-09-02T04:01:32.736Z,5.72
2018-09-02T04:02:36.790Z,5.90
2018-09-02T04:03:41.667Z,6.03
2018-09-02T04:04:45.922Z,5.42
2018-09-02T04:05:50.066Z,6.25
2018-09-02T04:06:54.128Z,6.03
2018-09-02T04:07:58.575Z,5.75
2018-09-02T04:09:02.756Z,6.20
2018-09-02T04:10:06.916Z,6.00
2018-09-02T04:11:11.478Z,6.20
2018-09-02T04:12:15.578Z,7.28
2018-09-02T04:13:19.624Z,6.15
2018-09-02T04:14:23.716Z,6.03
2018-09-02T04:15:27.802Z,6.50
2018-09-02T04:16:32.032Z,6.72
2018-09-02T04:17:36.301Z,6.60
2018-09-02T04:18:40.766Z,6.08
2018-09-02T04:19:44.823Z,5.87
2018-09-02T04:20:48.997Z,6.03
2018-09-02T04:21:53.479Z,6.40
2018-09-02T04:22:57.588Z,6.25
2018-09-02T04:24:01.928Z,6.47
2018-09-02T04:25:06.415Z,6.60
2018-09-02T04:26:10.535Z,6.35
2018-09-02T04:27:14.611Z,5.90
2018-09-02T04:28:18.934Z,6.35
2018-09-02T04:29:23.073Z,6.60
2018-09-02T04:30:27.434Z,6.28
2018-09-02T04:31:31.900Z,6.03
2018-09-02T04:32:36.001Z,5.85
2018-09-02T04:33:40.155Z,6.00
2018-09-02T04:34:44.142Z,6.05
2018-09-02T04:35:48.238Z,6.33
2018-09-02T04:36:52.457Z,5.95
2018-09-02T04:37:56.949Z,5.90
2018-09-02T04:39:01.416Z,6.08
2018-09-02T04:40:05.670Z,6.05
2018-09-02T04:41:09.951Z,6.33
2018-09-02T04:42:14.062Z,5.78
2018-09-02T04:43:18.310Z,6.30
2018-09-02T04:44:22.401Z,7.87
2018-09-02T04:45:26.971Z,6.60
2018-09-02T04:46:31.116Z,6.50
2018-09-02T04:47:35.237Z,6.15
2018-09-02T04:48:39.388Z,6.78
2018-09-02T04:49:43.791Z,5.78
2018-09-02T04:50:48.075Z,6.08
2018-09-02T04:51:52.099Z,6.03
2018-09-02T04:52:56.166Z,5.17
2018-09-02T04:54:00.240Z,5.65
2018-09-02T04:55:04.362Z,5.42
2018-09-02T04:56:08.855Z,5.70
2018-09-02T04:57:13.142Z,6.33
2018-09-02T04:58:17.264Z,6.35
2018-09-02T04:59:21.317Z,6.80
2018-09-02T05:00:25.695Z,5.92
2018-09-02T05:01:29.770Z,5.97
2018-09-02T05:02:33.856Z,5.85
2018-09-02T05:03:38.068Z,5.15
2018-09-02T05:04:42.163Z,5.70
2018-09-02T05:05:46.269Z,5.58
2018-09-02T05:06:50.420Z,6.20
2018-09-02T05:07:54.917Z,5.55
2018-09-02T05:08:58.980Z,5.30
2018-09-02T05:10:03.127Z,5.58
2018-09-02T05:11:07.296Z,5.90
2018-09-02T05:12:11.632Z,5.65
2018-09-02T05:13:15.740Z,5.33
2018-09-02T05:14:19.866Z,5.55
2018-09-02T05:15:23.998Z,5.25
2018-09-02T05:16:28.045Z,5.92
2018-09-02T05:17:33.048Z,5.22
2018-09-02T05:18:37.545Z,5.35
2018-09-02T05:19:41.643Z,5.20
2018-09-02T05:20:45.746Z,5.30
2018-09-02T05:21:50.057Z,5.37
2018-09-02T05:22:54.454Z,5.55
2018-09-02T05:23:58.534Z,5.45
2018-09-02T05:25:02.625Z,5.85
2018-09-02T05:26:06.847Z,5.50
2018-09-02T05:27:10.965Z,5.17
2018-09-02T05:28:15.090Z,5.00
2018-09-02T05:29:19.223Z,5.10
2018-09-02T05:30:23.442Z,5.40
2018-09-02T05:31:27.492Z,5.58
2018-09-02T05:32:31.606Z,5.80
2018-09-02T05:33:35.933Z,5.47
2018-09-02T05:34:40.092Z,5.75
2018-09-02T05:35:44.151Z,5.47
2018-09-02T05:36:48.314Z,5.33
2018-09-02T05:37:52.886Z,5.33
2018-09-02T05:38:56.949Z,5.90
2018-09-02T05:40:01.132Z,5.87
2018-09-02T05:41:05.622Z,5.78
2018-09-02T05:42:09.889Z,5.45
2018-09-02T05:43:14.047Z,5.28
2018-09-02T05:44:18.153Z,5.40
2018-09-02T05:45:22.396Z,5.50
2018-09-02T05:46:26.490Z,5.65
2018-09-02T05:47:30.520Z,5.72
2018-09-02T05:48:34.581Z,5.47
2018-09-02T05:49:39.052Z,6.12
2018-09-02T05:50:43.084Z,5.58
2018-09-02T05:51:47.473Z,5.80
2018-09-02T05:52:51.601Z,6.33
2018-09-02T05:53:55.744Z,5.33
2018-09-02T05:54:59.917Z,5.35
2018-09-02T05:56:04.040Z,6.12
2018-09-02T05:57:08.510Z,5.70
2018-09-02T05:58:12.765Z,5.80
2018-09-02T05:59:16.958Z,5.33
2018-09-02T06:00:21.163Z,5.85
2018-09-02T06:01:25.171Z,5.97
2018-09-02T06:02:29.283Z,5.58
2018-09-02T06:03:33.526Z,5.87
2018-09-02T06:04:37.909Z,5.55
2018-09-02T06:05:42.058Z,5.50
2018-09-02T06:06:46.300Z,5.55
2018-09-02T06:07:50.289Z,5.55
2018-09-02T06:08:54.433Z,5.95
2018-09-02T06:09:58.789Z,6.58
2018-09-02T06:11:02.834Z,5.87
2018-09-02T06:12:06.875Z,5.80
2018-09-02T06:13:11.073Z,5.80
2018-09-02T06:14:15.382Z,5.45
2018-09-02T06:15:19.498Z,6.20
2018-09-02T06:16:23.552Z,5.50
2018-09-02T06:17:27.766Z,6.28
2018-09-02T06:18:32.516Z,6.25
2018-09-02T06:19:36.614Z,6.78
2018-09-02T06:20:40.746Z,5.97
2018-09-02T06:21:44.820Z,5.78
2018-09-02T06:22:48.959Z,6.03
2018-09-02T06:23:53.122Z,6.15
2018-09-02T06:24:57.459Z,5.95
2018-09-02T06:26:01.676Z,5.50
2018-09-02T06:27:06.074Z,5.53
2018-09-02T06:28:10.455Z,5.90
2018-09-02T06:29:14.546Z,5.60
2018-09-02T06:30:18.612Z,6.00
2018-09-02T06:31:23.370Z,5.60
2018-09-02T06:32:27.739Z,5.17
2018-09-02T06:33:32.387Z,5.72
2018-09-02T06:34:36.811Z,5.20
2018-09-02T06:35:40.919Z,5.40
2018-09-02T06:36:45.197Z,5.22
2018-09-02T06:37:49.325Z,4.92
2018-09-02T06:38:53.398Z,5.40
2018-09-02T06:39:57.934Z,5.42
2018-09-02T06:41:02.059Z,5.05
2018-09-02T06:42:06.167Z,5.92
2018-09-02T06:43:10.701Z,5.17
2018-09-02T06:44:14.782Z,5.20
2018-09-02T06:45:19.128Z,5.60
2018-09-02T06:46:23.294Z,5.22
2018-09-02T06:47:27.431Z,5.22
2018-09-02T06:48:31.560Z,5.62
2018-09-02T06:49:35.902Z,5.20
2018-09-02T06:50:40.022Z,5.50
2018-09-02T06:51:44.134Z,5.55
2018-09-02T06:52:48.262Z,5.40
2018-09-02T06:53:52.335Z,5.22
2018-09-02T06:54:56.828Z,5.20
2018-09-02T06:56:00.919Z,5.37
2018-09-02T06:57:05.309Z,5.05
2018-09-02T06:58:10.533Z,5.58
2018-09-02T06:59:14.648Z,5.22
2018-09-02T07:00:18.795Z,4.92
2018-09-02T07:01:23.204Z,4.75
2018-09-02T07:02:27.525Z,4.75
2018-09-02T07:03:31.591Z,5.20
2018-09-02T07:04:35.684Z,4.80
2018-09-02T07:05:41.146Z,5.20
2018-09-02T07:06:45.259Z,5.10
2018-09-02T07:07:49.364Z,4.42
2018-09-02T07:08:53.443Z,5.20
2018-09-02T07:09:57.782Z,4.75
2018-09-02T07:11:01.886Z,4.80
2018-09-02T07:12:06.035Z,4.55
2018-09-02T07:13:10.264Z,4.53
2018-09-02T07:14:14.728Z,4.67
2018-09-02T07:15:18.772Z,4.72
2018-09-02T07:16:23.032Z,4.20
2018-09-02T07:17:27.364Z,4.80
2018-09-02T07:18:31.562Z,4.83
2018-09-02T07:19:35.668Z,4.45
2018-09-02T07:20:39.814Z,4.40
2018-09-02T07:21:43.890Z,4.65
2018-09-02T07:22:48.300Z,4.53
2018-09-02T07:23:52.374Z,3.80
2018-09-02T07:24:56.450Z,4.30
2018-09-02T07:26:00.536Z,3.62
2018-09-02T07:27:04.852Z,4.37
2018-09-02T07:28:08.942Z,4.00
2018-09-02T07:29:13.011Z,4.65
2018-09-02T07:30:17.202Z,4.40
2018-09-02T07:31:21.356Z,4.17
2018-09-02T07:32:25.720Z,4.70
2018-09-02T07:33:29.813Z,4.10
2018-09-02T07:34:34.210Z,4.40
2018-09-02T07:35:38.556Z,4.35
2018-09-02T07:36:42.668Z,4.20
2018-09-02T07:37:46.861Z,4.30
2018-09-02T07:38:50.984Z,4.55
2018-09-02T07:39:55.381Z,4.80
2018-09-02T07:40:59.539Z,4.40
2018-09-02T07:42:03.589Z,4.53
2018-09-02T07:43:07.701Z,4.65
2018-09-02T07:44:11.902Z,4.65
2018-09-02T07:45:16.432Z,4.35
2018-09-02T07:46:20.612Z,4.92
2018-09-02T07:47:25.136Z,4.60
2018-09-02T07:48:29.194Z,4.30
2018-09-02T07:49:33.458Z,4.75
2018-09-02T07:50:37.560Z,5.03
2018-09-02T07:51:41.786Z,5.00
2018-09-02T07:52:46.341Z,4.67
2018-09-02T07:53:50.540Z,4.60
2018-09-02T07:54:54.639Z,5.00
2018-09-02T07:55:59.138Z,4.85
2018-09-02T07:57:03.322Z,4.50
2018-09-02T07:58:07.444Z,4.37
2018-09-02T07:59:11.666Z,4.25
2018-09-02T08:00:15.905Z,4.58
2018-09-02T08:01:20.044Z,4.70
2018-09-02T08:02:24.235Z,4.78
2018-09-02T08:03:28.443Z,4.45
2018-09-02T08:04:32.598Z,5.08
2018-09-02T08:05:36.674Z,4.87
2018-09-02T08:06:40.809Z,4.15
2018-09-02T08:07:45.195Z,4.72
2018-09-02T08:08:49.368Z,4.92
2018-09-02T08:09:53.456Z,4.17
2018-09-02T08:10:57.723Z,4.65
2018-09-02T08:12:02.157Z,4.42
2018-09-02T08:13:06.247Z,4.58
2018-09-02T08:14:10.490Z,4.60
2018-09-02T08:15:14.610Z,4.75
2018-09-02T08:16:19.555Z,4.58
2018-09-02T08:17:23.681Z,4.28
2018-09-02T08:18:27.757Z,4.37
2018-09-02T08:19:31.959Z,4.08
2018-09-02T08:20:36.060Z,4.37
2018-09-02T08:21:40.131Z,4.65
2018-09-02T08:22:44.500Z,4.40
2018-09-02T08:23:48.730Z,4.60
2018-09-02T08:24:52.912Z,4.35
2018-09-02T08:25:56.984Z,4.33
2018-09-02T08:27:01.391Z,4.37
2018-09-02T08:28:05.509Z,4.83
2018-09-02T08:29:09.640Z,4.30
2018-09-02T08:30:14.219Z,4.33
2018-09-02T08:31:18.454Z,3.75
2018-09-02T08:32:22.525Z,4.37
2018-09-02T08:33:26.890Z,4.17
2018-09-02T08:34:31.382Z,4.05
2018-09-02T08:35:35.583Z,4.10
2018-09-02T08:36:39.742Z,4.47
2018-09-02T08:37:44.135Z,4.05
2018-09-02T08:38:48.289Z,4.03
2018-09-02T08:39:52.412Z,3.80
2018-09-02T08:40:56.556Z,4.67
2018-09-02T08:42:00.583Z,4.00
2018-09-02T08:43:04.922Z,4.10
2018-09-02T08:44:09.556Z,4.10
2018-09-02T08:45:13.669Z,4.08
2018-09-02T08:46:17.800Z,3.90
2018-09-02T08:47:21.856Z,4.30
2018-09-02T08:48:26.452Z,3.90
2018-09-02T08:49:30.575Z,4.00
2018-09-02T08:50:34.956Z,4.37
2018-09-02T08:51:39.019Z,3.90
2018-09-02T08:52:43.212Z,3.77
2018-09-02T08:53:47.350Z,3.80
2018-09-02T08:54:51.934Z,3.67
2018-09-02T08:55:56.434Z,3.70
2018-09-02T08:57:00.527Z,3.75
2018-09-02T08:58:04.821Z,3.70
2018-09-02T08:59:08.990Z,3.95
2018-09-02T09:00:14.952Z,4.10
2018-09-02T09:01:19.024Z,4.20
2018-09-02T09:02:23.425Z,4.17
2018-09-02T09:03:27.582Z,3.80
2018-09-02T09:04:31.832Z,4.03
2018-09-02T09:05:35.954Z,3.95
2018-09-02T09:06:40.073Z,3.72
2018-09-02T09:07:44.945Z,3.77
2018-09-02T09:08:49.168Z,3.72
2018-09-02T09:09:53.058Z,3.80
2018-09-02T09:10:58.972Z,4.45
2018-09-02T09:12:03.598Z,3.77
2018-09-02T09:13:07.717Z,3.75
2018-09-02T09:14:11.884Z,4.05
2018-09-02T09:15:16.086Z,4.60
2018-09-02T09:16:20.313Z,4.10
2018-09-02T09:17:24.886Z,4.08
2018-09-02T09:18:29.048Z,3.92
2018-09-02T09:19:33.202Z,4.25
2018-09-02T09:20:37.328Z,4.03
2018-09-02T09:21:41.778Z,4.37
2018-09-02T09:22:45.864Z,4.15
2018-09-02T09:23:49.864Z,3.83
2018-09-02T09:24:53.971Z,3.75
2018-09-02T09:25:58.509Z,4.28
2018-09-02T09:27:02.668Z,4.20
2018-09-02T09:28:06.906Z,4.30
2018-09-02T09:29:11.227Z,3.98
2018-09-02T09:30:16.680Z,4.08
2018-09-02T09:31:20.693Z,3.75
2018-09-02T09:32:24.961Z,3.95
2018-09-02T09:33:29.100Z,4.37
2018-09-02T09:34:33.194Z,3.80
2018-09-02T09:35:37.337Z,4.25
2018-09-02T09:36:41.604Z,3.67
2018-09-02T09:37:45.754Z,3.60
2018-09-02T09:38:49.852Z,4.28
2018-09-02T09:39:53.967Z,3.80
2018-09-02T09:40:58.083Z,3.80
2018-09-02T09:42:02.160Z,3.45
2018-09-02T09:43:06.248Z,3.27
2018-09-02T09:44:10.425Z,3.77
2018-09-02T09:45:14.472Z,3.85
2018-09-02T09:46:18.612Z,3.40
2018-09-02T09:47:22.705Z,3.25
2018-09-02T09:48:27.088Z,3.00
2018-09-02T09:49:31.248Z,2.83
2018-09-02T09:50:35.437Z,3.35
2018-09-02T09:51:39.926Z,3.30
2018-09-02T09:52:44.235Z,2.85
2018-09-02T09:53:48.393Z,3.27
2018-09-02T09:54:52.467Z,3.20
2018-09-02T09:55:56.641Z,3.10
2018-09-02T09:57:00.778Z,3.67
2018-09-02T09:58:05.557Z,3.67
2018-09-02T09:59:09.667Z,3.42
2018-09-02T10:00:17.863Z,3.42
2018-09-02T10:01:21.976Z,3.37
2018-09-02T10:02:26.018Z,3.60
2018-09-02T10:03:30.142Z,3.45
2018-09-02T10:04:34.434Z,3.40
2018-09-02T10:05:38.622Z,3.40
2018-09-02T10:06:42.683Z,3.47
2018-09-02T10:07:46.831Z,3.30
2018-09-02T10:08:51.236Z,3.65
2018-09-02T10:09:55.323Z,3.25
2018-09-02T10:10:59.420Z,3.20
2018-09-02T10:12:03.533Z,3.58
2018-09-02T10:13:07.578Z,3.47
2018-09-02T10:14:11.956Z,3.15
2018-09-02T10:15:16.047Z,3.08
2018-09-02T10:16:20.271Z,3.30
2018-09-02T10:17:24.529Z,3.50
2018-09-02T10:18:28.468Z,3.25
2018-09-02T10:19:32.579Z,3.72
2018-09-02T10:20:36.843Z,3.20
2018-09-02T10:21:41.163Z,3.00
2018-09-02T10:22:45.290Z,3.58
2018-09-02T10:23:49.338Z,3.45
2018-09-02T10:24:53.689Z,3.47
2018-09-02T10:25:58.008Z,3.70
2018-09-02T10:27:02.246Z,3.27
2018-09-02T10:28:06.898Z,3.25
2018-09-02T10:29:11.266Z,3.40
2018-09-02T10:30:15.620Z,3.37
2018-09-02T10:31:19.822Z,3.40
2018-09-02T10:32:24.400Z,3.22
2018-09-02T10:33:29.099Z,3.58
2018-09-02T10:34:33.188Z,3.40
2018-09-02T10:35:37.638Z,3.33
2018-09-02T10:36:42.493Z,3.10
2018-09-02T10:37:46.960Z,3.08
2018-09-02T10:38:51.321Z,3.00
2018-09-02T10:39:55.750Z,3.02
2018-09-02T10:40:59.987Z,2.77
2018-09-02T10:42:04.173Z,3.02
2018-09-02T10:43:08.385Z,2.92
2018-09-02T10:44:12.693Z,3.00
2018-09-02T10:45:16.926Z,2.72
2018-09-02T10:46:21.189Z,2.72
2018-09-02T10:47:25.601Z,3.02
2018-09-02T10:48:29.949Z,2.67
2018-09-02T10:49:34.416Z,3.00
2018-09-02T10:50:38.590Z,2.70
2018-09-02T10:51:42.802Z,2.60
2018-09-02T10:52:47.144Z,3.10
2018-09-02T10:53:51.262Z,2.72
2018-09-02T10:54:55.463Z,2.40
2018-09-02T10:55:59.780Z,2.40
2018-09-02T10:57:03.942Z,2.60
2018-09-02T10:58:08.410Z,2.60
2018-09-02T10:59:12.669Z,2.50
2018-09-02T11:00:16.866Z,2.30
2018-09-02T11:01:20.991Z,2.62
2018-09-02T11:02:25.528Z,2.70
2018-09-02T11:03:29.629Z,2.50
2018-09-02T11:04:33.753Z,2.45
2018-09-02T11:05:37.951Z,2.52
2018-09-02T11:06:42.269Z,2.62
2018-09-02T11:07:47.033Z,2.47
2018-09-02T11:08:51.157Z,2.10
2018-09-02T11:09:55.346Z,2.45
2018-09-02T11:10:59.735Z,2.15
2018-09-02T11:12:04.176Z,2.37
2018-09-02T11:13:08.525Z,2.70
2018-09-02T11:14:12.852Z,2.50
2018-09-02T11:15:17.149Z,2.40
2018-09-02T11:16:21.879Z,2.45
2018-09-02T11:17:26.215Z,2.47
2018-09-02T11:18:30.544Z,2.30
2018-09-02T11:19:35.018Z,2.60
2018-09-02T11:20:39.401Z,2.50
2018-09-02T11:21:43.845Z,2.20
2018-09-02T11:22:47.934Z,2.00
2018-09-02T11:23:52.159Z,2.60
2018-09-02T11:24:56.578Z,2.37
2018-09-02T11:26:01.057Z,2.60
2018-09-02T11:27:05.714Z,2.70
2018-09-02T11:28:10.239Z,2.90
2018-09-02T11:29:14.378Z,2.60
2018-09-02T11:30:18.764Z,2.85
2018-09-02T11:31:23.539Z,2.77
2018-09-02T11:32:27.933Z,2.67
2018-09-02T11:33:32.156Z,2.62
2018-09-02T11:34:36.380Z,2.58
2018-09-02T11:35:40.671Z,2.80
2018-09-02T11:36:45.134Z,2.52
2018-09-02T11:37:49.395Z,2.60
2018-09-02T11:38:54.012Z,2.47
2018-09-02T11:39:58.506Z,2.77
2018-09-02T11:41:02.670Z,2.58
2018-09-02T11:42:07.272Z,2.42
2018-09-02T11:43:11.424Z,2.62
2018-09-02T11:44:16.171Z,2.33
2018-09-02T11:45:20.361Z,2.62
2018-09-02T11:46:25.071Z,2.50
2018-09-02T11:47:29.190Z,2.50
2018-09-02T11:48:33.222Z,2.70
2018-09-02T11:49:37.355Z,2.40
2018-09-02T11:50:41.462Z,2.85
2018-09-02T11:51:45.559Z,2.50
2018-09-02T11:52:49.669Z,2.62
2018-09-02T11:53:53.786Z,2.40
2018-09-02T11:54:57.810Z,2.60
2018-09-02T11:56:02.927Z,2.40
2018-09-02T11:57:07.105Z,2.55
2018-09-02T11:58:11.204Z,2.40
2018-09-02T11:59:15.834Z,2.70
2018-09-02T12:00:20.111Z,2.70
2018-09-02T12:01:24.146Z,2.45
2018-09-02T12:02:28.276Z,2.45
2018-09-02T12:03:32.428Z,2.42
2018-09-02T12:04:36.607Z,2.47
2018-09-02T12:05:41.299Z,2.45
2018-09-02T12:06:45.686Z,2.45
2018-09-02T12:07:50.117Z,2.20
2018-09-02T12:08:54.531Z,2.40
2018-09-02T12:09:58.677Z,2.30
2018-09-02T12:11:02.962Z,2.20
2018-09-02T12:12:07.468Z,2.30
2018-09-02T12:13:11.778Z,2.47
2018-09-02T12:14:16.313Z,1.98
2018-09-02T12:15:20.519Z,2.12
2018-09-02T12:16:24.753Z,2.20
2018-09-02T12:17:28.900Z,2.30
2018-09-02T12:18:33.014Z,2.05
2018-09-02T12:19:37.740Z,2.33
2018-09-02T12:20:41.819Z,2.33
2018-09-02T12:21:45.924Z,2.40
2018-09-02T12:22:50.414Z,2.37
2018-09-02T12:23:54.526Z,2.22
2018-09-02T12:24:58.735Z,2.33
2018-09-02T12:26:02.939Z,2.42
2018-09-02T12:27:07.032Z,2.35
2018-09-02T12:28:11.330Z,2.20
2018-09-02T12:29:15.742Z,2.62
2018-09-02T12:30:20.155Z,2.42
2018-09-02T12:31:24.343Z,2.80
2018-09-02T12:32:28.387Z,2.60
2018-09-02T12:33:32.912Z,2.60
2018-09-02T12:34:36.996Z,2.80
2018-09-02T12:35:41.038Z,2.77
2018-09-02T12:36:45.537Z,2.58
2018-09-02T12:37:50.243Z,2.40
2018-09-02T12:38:54.602Z,2.62
2018-09-02T12:39:59.187Z,2.58
2018-09-02T12:41:05.553Z,2.25
2018-09-02T12:42:09.679Z,2.27
2018-09-02T12:43:13.689Z,2.15
2018-09-02T12:44:18.114Z,2.30
2018-09-02T12:45:22.320Z,2.35
2018-09-02T12:46:26.620Z,2.40
2018-09-02T12:47:32.696Z,1.95
2018-09-02T12:48:39.317Z,2.33
2018-09-02T12:49:46.171Z,2.17
2018-09-02T12:50:52.469Z,2.00
2018-09-02T12:51:59.697Z,2.30
2018-09-02T12:53:03.871Z,2.00
2018-09-02T12:54:08.073Z,2.20
2018-09-02T12:55:12.417Z,2.12
2018-09-02T12:56:16.486Z,2.00
2018-09-02T12:57:20.588Z,1.87
2018-09-02T12:58:24.715Z,2.25
2018-09-02T12:59:29.121Z,2.27
2018-09-02T13:00:34.501Z,2.42
2018-09-02T13:01:38.620Z,2.35
2018-09-02T13:02:42.890Z,1.95
2018-09-02T13:03:46.914Z,2.45
2018-09-02T13:04:51.047Z,2.00
2018-09-02T13:05:55.369Z,1.90
2018-09-02T13:06:59.593Z,2.50
2018-09-02T13:08:03.716Z,2.15
2018-09-02T13:09:08.238Z,2.15
2018-09-02T13:10:12.396Z,2.35
2018-09-02T13:11:16.513Z,2.40
2018-09-02T13:12:20.926Z,2.27
2018-09-02T13:13:25.037Z,2.60
2018-09-02T13:14:29.161Z,2.22
2018-09-02T13:15:33.571Z,7.92
2018-09-02T13:16:38.350Z,3.20
2018-09-02T13:17:42.470Z,2.87
2018-09-02T13:18:47.158Z,5.65
2018-09-02T13:19:51.287Z,3.20
2018-09-02T13:20:55.462Z,3.12
2018-09-02T13:21:59.770Z,2.47
2018-09-02T13:23:03.770Z,2.90
2018-09-02T13:24:08.460Z,2.50
2018-09-02T13:25:12.884Z,2.30
2018-09-02T13:26:16.985Z,2.33
2018-09-02T13:27:21.458Z,2.52
2018-09-02T13:28:25.805Z,2.20
2018-09-02T13:29:29.889Z,2.20
2018-09-02T13:30:33.940Z,2.12
2018-09-02T13:31:38.251Z,1.90
2018-09-02T13:32:42.644Z,2.15
2018-09-02T13:33:46.802Z,2.15
2018-09-02T13:34:50.881Z,2.33
2018-09-02T13:35:55.333Z,2.12
2018-09-02T13:36:59.527Z,1.90
2018-09-02T13:38:03.668Z,1.95
2018-09-02T13:39:08.181Z,2.02
2018-09-02T13:40:12.459Z,2.00
2018-09-02T13:41:16.633Z,2.00
2018-09-02T13:42:20.942Z,2.02
2018-09-02T13:43:25.107Z,2.05
2018-09-02T13:44:29.383Z,2.02
2018-09-02T13:45:33.879Z,1.90
2018-09-02T13:46:37.985Z,1.70
2018-09-02T13:47:42.175Z,2.10
2018-09-02T13:48:46.383Z,2.00
2018-09-02T13:49:50.434Z,1.95
2018-09-02T13:50:54.759Z,2.12
2018-09-02T13:51:58.743Z,2.10
2018-09-02T13:53:03.042Z,1.72
2018-09-02T13:54:07.266Z,1.87
2018-09-02T13:55:11.390Z,2.17
2018-09-02T13:56:15.549Z,2.00
2018-09-02T13:57:20.006Z,1.70
2018-09-02T13:58:24.162Z,1.77
2018-09-02T13:59:28.316Z,1.70
2018-09-02T14:00:32.758Z,1.85
2018-09-02T14:01:37.163Z,1.85
2018-09-02T14:02:41.298Z,1.98
2018-09-02T14:03:45.446Z,1.85
2018-09-02T14:04:49.587Z,1.87
2018-09-02T14:05:53.707Z,1.92
2018-09-02T14:06:57.798Z,2.00
2018-09-02T14:08:01.938Z,1.70
2018-09-02T14:09:07.381Z,2.15
2018-09-02T14:10:11.484Z,2.00
2018-09-02T14:11:15.580Z,1.80
2018-09-02T14:12:19.731Z,2.02
2018-09-02T14:13:24.738Z,1.87
2018-09-02T14:14:29.542Z,1.70
2018-09-02T14:15:34.181Z,1.95